sensor_id;sensor_type;location;lat;lon;timestamp;temperature;humidity
38428;DHT22;24211;49.980;19.776;2023-07-02T00:01:02;23.10;99.90
38428;DHT22;24211;49.980;19.776;2023-07-02T00:03:49;23.10;99.90
38428;DHT22;24211;49.980;19.776;2023-07-02T00:06:16;23.00;99.90
38428;DHT22;24211;49.980;19.776;2023-07-02T00:08:44;23.00;99.90
38428;DHT22;24211;49.980;19.776;2023-07-02T00:11:11;23.00;99.90
38428;DHT22;24211;49.980;19.776;2023-07-02T00:13:39;23.00;99.90
38428;DHT22;24211;49.980;19.776;2023-07-02T00:16:06;23.00;99.90
38428;DHT22;24211;49.980;19.776;2023-07-02T00:18:33;22.90;99.90
38428;DHT22;24211;49.980;19.776;2023-07-02T00:21:01;22.90;99.90
38428;DHT22;24211;49.980;19.776;2023-07-02T00:23:30;22.80;99.90
38428;DHT22;24211;49.980;19.776;2023-07-02T00:25:57;22.80;99.90
38428;DHT22;24211;49.980;19.776;2023-07-02T00:28:24;22.80;99.90
38428;DHT22;24211;49.980;19.776;2023-07-02T00:30:51;22.80;99.90
38428;DHT22;24211;49.980;19.776;2023-07-02T00:33:19;22.80;99.90
38428;DHT22;24211;49.980;19.776;2023-07-02T00:35:46;22.80;99.90
38428;DHT22;24211;49.980;19.776;2023-07-02T00:38:13;22.70;99.90
38428;DHT22;24211;49.980;19.776;2023-07-02T00:40:40;22.70;99.90
38428;DHT22;24211;49.980;19.776;2023-07-02T00:43:07;22.70;99.90
38428;DHT22;24211;49.980;19.776;2023-07-02T00:45:40;22.70;99.90
38428;DHT22;24211;49.980;19.776;2023-07-02T00:48:07;22.60;99.90
38428;DHT22;24211;49.980;19.776;2023-07-02T00:50:39;22.60;99.90
38428;DHT22;24211;49.980;19.776;2023-07-02T00:53:09;22.60;99.90
38428;DHT22;24211;49.980;19.776;2023-07-02T00:55:36;22.60;99.90
38428;DHT22;24211;49.980;19.776;2023-07-02T00:58:03;22.50;99.90
38428;DHT22;24211;49.980;19.776;2023-07-02T01:00:31;22.50;99.90
38428;DHT22;24211;49.980;19.776;2023-07-02T01:02:58;22.50;99.90
38428;DHT22;24211;49.980;19.776;2023-07-02T01:05:30;22.50;99.90
38428;DHT22;24211;49.980;19.776;2023-07-02T01:08:06;22.40;99.90
38428;DHT22;24211;49.980;19.776;2023-07-02T01:10:34;22.40;99.90
38428;DHT22;24211;49.980;19.776;2023-07-02T01:13:10;22.40;99.90
38428;DHT22;24211;49.980;19.776;2023-07-02T01:15:42;22.30;99.90
38428;DHT22;24211;49.980;19.776;2023-07-02T01:18:14;22.40;99.90
38428;DHT22;24211;49.980;19.776;2023-07-02T01:20:43;22.30;99.90
38428;DHT22;24211;49.980;19.776;2023-07-02T01:23:11;22.30;99.90
38428;DHT22;24211;49.980;19.776;2023-07-02T01:25:38;22.20;99.90
38428;DHT22;24211;49.980;19.776;2023-07-02T01:28:05;22.20;99.90
38428;DHT22;24211;49.980;19.776;2023-07-02T01:30:33;22.20;99.90
38428;DHT22;24211;49.980;19.776;2023-07-02T01:33:01;22.20;99.90
38428;DHT22;24211;49.980;19.776;2023-07-02T01:35:29;22.10;99.90
38428;DHT22;24211;49.980;19.776;2023-07-02T01:37:56;22.10;99.90
38428;DHT22;24211;49.980;19.776;2023-07-02T01:40:24;22.10;99.90
38428;DHT22;24211;49.980;19.776;2023-07-02T01:42:51;22.10;99.90
38428;DHT22;24211;49.980;19.776;2023-07-02T01:45:19;22.00;99.90
38428;DHT22;24211;49.980;19.776;2023-07-02T01:47:46;22.00;99.90
38428;DHT22;24211;49.980;19.776;2023-07-02T01:50:14;22.00;99.90
38428;DHT22;24211;49.980;19.776;2023-07-02T01:52:41;22.00;99.90
38428;DHT22;24211;49.980;19.776;2023-07-02T01:55:08;22.00;99.90
38428;DHT22;24211;49.980;19.776;2023-07-02T01:57:35;22.00;99.90
38428;DHT22;24211;49.980;19.776;2023-07-02T02:00:03;21.90;99.90
38428;DHT22;24211;49.980;19.776;2023-07-02T02:02:41;21.90;99.90
38428;DHT22;24211;49.980;19.776;2023-07-02T02:05:10;21.90;99.90
38428;DHT22;24211;49.980;19.776;2023-07-02T02:07:38;21.90;99.90
38428;DHT22;24211;49.980;19.776;2023-07-02T02:10:06;21.80;99.90
38428;DHT22;24211;49.980;19.776;2023-07-02T02:12:34;21.80;99.90
38428;DHT22;24211;49.980;19.776;2023-07-02T02:15:06;21.80;99.90
38428;DHT22;24211;49.980;19.776;2023-07-02T02:17:34;21.80;99.90
38428;DHT22;24211;49.980;19.776;2023-07-02T02:20:05;21.80;99.90
38428;DHT22;24211;49.980;19.776;2023-07-02T02:22:33;21.80;99.90
38428;DHT22;24211;49.980;19.776;2023-07-02T02:25:01;21.80;99.90
38428;DHT22;24211;49.980;19.776;2023-07-02T02:27:28;21.70;99.90
38428;DHT22;24211;49.980;19.776;2023-07-02T02:29:55;21.80;99.90
38428;DHT22;24211;49.980;19.776;2023-07-02T02:32:23;21.70;99.90
38428;DHT22;24211;49.980;19.776;2023-07-02T02:34:51;21.70;99.90
38428;DHT22;24211;49.980;19.776;2023-07-02T02:37:20;21.70;99.90
38428;DHT22;24211;49.980;19.776;2023-07-02T02:39:49;21.70;99.90
38428;DHT22;24211;49.980;19.776;2023-07-02T02:42:17;21.70;99.90
38428;DHT22;24211;49.980;19.776;2023-07-02T02:44:44;21.70;99.90
38428;DHT22;24211;49.980;19.776;2023-07-02T02:47:12;21.70;99.90
38428;DHT22;24211;49.980;19.776;2023-07-02T02:49:39;21.60;99.90
38428;DHT22;24211;49.980;19.776;2023-07-02T02:52:06;21.60;99.90
38428;DHT22;24211;49.980;19.776;2023-07-02T02:54:34;21.60;99.90
38428;DHT22;24211;49.980;19.776;2023-07-02T02:57:01;21.60;99.90
38428;DHT22;24211;49.980;19.776;2023-07-02T02:59:28;21.60;99.90
38428;DHT22;24211;49.980;19.776;2023-07-02T03:01:55;21.60;99.90
38428;DHT22;24211;49.980;19.776;2023-07-02T03:04:23;21.50;99.90
38428;DHT22;24211;49.980;19.776;2023-07-02T03:06:52;21.50;99.90
38428;DHT22;24211;49.980;19.776;2023-07-02T03:09:20;21.50;99.90
38428;DHT22;24211;49.980;19.776;2023-07-02T03:11:47;21.40;99.90
38428;DHT22;24211;49.980;19.776;2023-07-02T03:14:15;21.40;99.90
38428;DHT22;24211;49.980;19.776;2023-07-02T03:16:42;21.30;99.90
38428;DHT22;24211;49.980;19.776;2023-07-02T03:19:12;21.30;99.90
38428;DHT22;24211;49.980;19.776;2023-07-02T03:21:43;21.30;99.90
38428;DHT22;24211;49.980;19.776;2023-07-02T03:24:11;21.30;99.90
38428;DHT22;24211;49.980;19.776;2023-07-02T03:26:40;21.30;99.90
38428;DHT22;24211;49.980;19.776;2023-07-02T03:29:08;21.20;99.90
38428;DHT22;24211;49.980;19.776;2023-07-02T03:31:35;21.20;99.90
38428;DHT22;24211;49.980;19.776;2023-07-02T03:34:05;21.20;99.90
38428;DHT22;24211;49.980;19.776;2023-07-02T03:36:35;21.30;99.90
38428;DHT22;24211;49.980;19.776;2023-07-02T03:39:03;21.30;99.90
38428;DHT22;24211;49.980;19.776;2023-07-02T03:41:34;21.30;99.90
38428;DHT22;24211;49.980;19.776;2023-07-02T03:44:01;21.30;99.90
38428;DHT22;24211;49.980;19.776;2023-07-02T03:46:28;21.40;99.90
38428;DHT22;24211;49.980;19.776;2023-07-02T03:48:57;21.40;99.90
38428;DHT22;24211;49.980;19.776;2023-07-02T03:51:24;21.50;99.90
38428;DHT22;24211;49.980;19.776;2023-07-02T03:53:52;21.50;99.90
38428;DHT22;24211;49.980;19.776;2023-07-02T03:56:19;21.50;99.90
38428;DHT22;24211;49.980;19.776;2023-07-02T03:58:46;21.60;99.90
38428;DHT22;24211;49.980;19.776;2023-07-02T04:01:13;21.70;99.90
38428;DHT22;24211;49.980;19.776;2023-07-02T04:03:50;21.80;99.90
38428;DHT22;24211;49.980;19.776;2023-07-02T04:06:19;21.90;99.90
38428;DHT22;24211;49.980;19.776;2023-07-02T04:08:46;21.90;99.90
38428;DHT22;24211;49.980;19.776;2023-07-02T04:11:13;22.00;99.90
38428;DHT22;24211;49.980;19.776;2023-07-02T04:13:41;22.20;99.90
38428;DHT22;24211;49.980;19.776;2023-07-02T04:16:08;22.20;99.90
38428;DHT22;24211;49.980;19.776;2023-07-02T04:18:35;22.40;99.90
38428;DHT22;24211;49.980;19.776;2023-07-02T04:21:03;22.50;99.90
38428;DHT22;24211;49.980;19.776;2023-07-02T04:23:30;22.60;99.90
38428;DHT22;24211;49.980;19.776;2023-07-02T04:25:58;22.70;99.90
38428;DHT22;24211;49.980;19.776;2023-07-02T04:28:45;22.80;99.90
38428;DHT22;24211;49.980;19.776;2023-07-02T04:31:15;23.00;99.90
38428;DHT22;24211;49.980;19.776;2023-07-02T04:33:42;23.10;99.90
38428;DHT22;24211;49.980;19.776;2023-07-02T04:36:09;23.20;99.90
38428;DHT22;24211;49.980;19.776;2023-07-02T04:38:37;23.30;99.90
38428;DHT22;24211;49.980;19.776;2023-07-02T04:41:06;23.30;99.90
38428;DHT22;24211;49.980;19.776;2023-07-02T04:43:33;23.50;99.90
38428;DHT22;24211;49.980;19.776;2023-07-02T04:46:01;23.60;99.90
38428;DHT22;24211;49.980;19.776;2023-07-02T04:48:28;23.70;99.90
38428;DHT22;24211;49.980;19.776;2023-07-02T04:50:55;23.70;99.90
38428;DHT22;24211;49.980;19.776;2023-07-02T04:53:23;23.80;99.90
38428;DHT22;24211;49.980;19.776;2023-07-02T04:55:50;24.00;99.90
38428;DHT22;24211;49.980;19.776;2023-07-02T04:58:17;24.00;99.90
38428;DHT22;24211;49.980;19.776;2023-07-02T05:00:44;24.10;99.90
38428;DHT22;24211;49.980;19.776;2023-07-02T05:03:12;24.30;99.90
38428;DHT22;24211;49.980;19.776;2023-07-02T05:05:39;24.40;99.90
38428;DHT22;24211;49.980;19.776;2023-07-02T05:08:06;24.50;99.90
38428;DHT22;24211;49.980;19.776;2023-07-02T05:10:33;24.70;99.90
38428;DHT22;24211;49.980;19.776;2023-07-02T05:13:01;24.80;99.90
38428;DHT22;24211;49.980;19.776;2023-07-02T05:15:28;24.90;99.90
38428;DHT22;24211;49.980;19.776;2023-07-02T05:17:56;25.00;99.90
38428;DHT22;24211;49.980;19.776;2023-07-02T05:20:23;25.20;99.90
38428;DHT22;24211;49.980;19.776;2023-07-02T05:22:50;25.30;99.90
38428;DHT22;24211;49.980;19.776;2023-07-02T05:25:17;25.40;99.90
38428;DHT22;24211;49.980;19.776;2023-07-02T05:27:45;25.60;99.90
38428;DHT22;24211;49.980;19.776;2023-07-02T05:30:12;25.70;99.90
38428;DHT22;24211;49.980;19.776;2023-07-02T05:32:40;25.70;99.90
38428;DHT22;24211;49.980;19.776;2023-07-02T05:35:07;25.70;99.90
38428;DHT22;24211;49.980;19.776;2023-07-02T05:37:35;25.80;99.90
38428;DHT22;24211;49.980;19.776;2023-07-02T05:40:02;25.90;99.90
38428;DHT22;24211;49.980;19.776;2023-07-02T05:42:30;25.90;99.90
38428;DHT22;24211;49.980;19.776;2023-07-02T05:44:57;26.10;99.90
38428;DHT22;24211;49.980;19.776;2023-07-02T05:47:24;26.20;99.90
38428;DHT22;24211;49.980;19.776;2023-07-02T05:49:54;26.20;99.90
38428;DHT22;24211;49.980;19.776;2023-07-02T05:52:21;26.30;99.90
38428;DHT22;24211;49.980;19.776;2023-07-02T05:54:49;26.40;99.90
38428;DHT22;24211;49.980;19.776;2023-07-02T05:57:16;26.50;99.90
38428;DHT22;24211;49.980;19.776;2023-07-02T05:59:43;26.50;99.90
38428;DHT22;24211;49.980;19.776;2023-07-02T06:02:11;26.50;99.90
38428;DHT22;24211;49.980;19.776;2023-07-02T06:04:38;26.60;99.90
38428;DHT22;24211;49.980;19.776;2023-07-02T06:07:05;26.70;99.90
38428;DHT22;24211;49.980;19.776;2023-07-02T06:09:32;26.90;99.90
38428;DHT22;24211;49.980;19.776;2023-07-02T06:11:59;26.90;99.90
38428;DHT22;24211;49.980;19.776;2023-07-02T06:14:27;26.90;99.90
38428;DHT22;24211;49.980;19.776;2023-07-02T06:16:55;26.90;99.90
38428;DHT22;24211;49.980;19.776;2023-07-02T06:19:24;26.90;99.90
38428;DHT22;24211;49.980;19.776;2023-07-02T06:21:51;26.90;99.90
38428;DHT22;24211;49.980;19.776;2023-07-02T06:24:18;26.90;99.90
38428;DHT22;24211;49.980;19.776;2023-07-02T06:26:46;26.90;99.90
38428;DHT22;24211;49.980;19.776;2023-07-02T06:29:13;26.90;99.90
38428;DHT22;24211;49.980;19.776;2023-07-02T06:31:40;27.10;99.90
38428;DHT22;24211;49.980;19.776;2023-07-02T06:34:07;27.20;99.90
38428;DHT22;24211;49.980;19.776;2023-07-02T06:36:35;27.30;99.90
38428;DHT22;24211;49.980;19.776;2023-07-02T06:39:02;27.50;99.90
38428;DHT22;24211;49.980;19.776;2023-07-02T06:41:30;27.50;99.90
38428;DHT22;24211;49.980;19.776;2023-07-02T06:43:57;27.60;99.90
38428;DHT22;24211;49.980;19.776;2023-07-02T06:46:24;27.70;99.90
38428;DHT22;24211;49.980;19.776;2023-07-02T06:48:51;27.80;99.90
38428;DHT22;24211;49.980;19.776;2023-07-02T06:51:19;27.80;99.90
38428;DHT22;24211;49.980;19.776;2023-07-02T06:53:47;27.80;99.90
38428;DHT22;24211;49.980;19.776;2023-07-02T06:56:15;27.90;99.90
38428;DHT22;24211;49.980;19.776;2023-07-02T06:58:42;28.00;99.90
38428;DHT22;24211;49.980;19.776;2023-07-02T07:01:10;28.00;99.90
38428;DHT22;24211;49.980;19.776;2023-07-02T07:03:38;27.80;99.90
38428;DHT22;24211;49.980;19.776;2023-07-02T07:06:05;27.40;99.90
38428;DHT22;24211;49.980;19.776;2023-07-02T07:08:32;27.30;99.90
38428;DHT22;24211;49.980;19.776;2023-07-02T07:10:59;27.50;99.90
38428;DHT22;24211;49.980;19.776;2023-07-02T07:13:26;27.80;99.90
38428;DHT22;24211;49.980;19.776;2023-07-02T07:15:54;27.60;99.90
38428;DHT22;24211;49.980;19.776;2023-07-02T07:18:21;27.60;99.90
38428;DHT22;24211;49.980;19.776;2023-07-02T07:20:49;27.60;99.90
38428;DHT22;24211;49.980;19.776;2023-07-02T07:23:17;27.60;99.90
38428;DHT22;24211;49.980;19.776;2023-07-02T07:25:44;27.60;99.90
38428;DHT22;24211;49.980;19.776;2023-07-02T07:28:11;27.60;99.90
38428;DHT22;24211;49.980;19.776;2023-07-02T07:30:43;27.40;99.90
38428;DHT22;24211;49.980;19.776;2023-07-02T07:33:10;27.40;99.90
38428;DHT22;24211;49.980;19.776;2023-07-02T07:35:38;27.10;99.90
38428;DHT22;24211;49.980;19.776;2023-07-02T07:38:05;27.20;99.90
38428;DHT22;24211;49.980;19.776;2023-07-02T07:40:32;27.40;99.90
38428;DHT22;24211;49.980;19.776;2023-07-02T07:42:59;27.50;99.90
38428;DHT22;24211;49.980;19.776;2023-07-02T07:45:26;27.50;99.90
38428;DHT22;24211;49.980;19.776;2023-07-02T07:47:53;27.40;99.90
38428;DHT22;24211;49.980;19.776;2023-07-02T07:50:21;27.60;99.90
38428;DHT22;24211;49.980;19.776;2023-07-02T07:52:48;27.60;99.90
38428;DHT22;24211;49.980;19.776;2023-07-02T07:55:15;27.60;99.90
38428;DHT22;24211;49.980;19.776;2023-07-02T07:57:42;27.60;99.90
38428;DHT22;24211;49.980;19.776;2023-07-02T08:00:10;27.50;99.90
38428;DHT22;24211;49.980;19.776;2023-07-02T08:02:47;27.50;99.90
38428;DHT22;24211;49.980;19.776;2023-07-02T08:05:15;27.70;99.90
38428;DHT22;24211;49.980;19.776;2023-07-02T08:07:42;27.90;99.90
38428;DHT22;24211;49.980;19.776;2023-07-02T08:10:10;27.80;99.90
38428;DHT22;24211;49.980;19.776;2023-07-02T08:12:37;27.60;99.90
38428;DHT22;24211;49.980;19.776;2023-07-02T08:15:05;27.90;99.90
38428;DHT22;24211;49.980;19.776;2023-07-02T08:17:33;28.10;99.90
38428;DHT22;24211;49.980;19.776;2023-07-02T08:20:01;28.20;99.90
38428;DHT22;24211;49.980;19.776;2023-07-02T08:22:31;28.10;99.90
38428;DHT22;24211;49.980;19.776;2023-07-02T08:24:58;28.30;99.90
38428;DHT22;24211;49.980;19.776;2023-07-02T08:27:25;28.50;99.90
38428;DHT22;24211;49.980;19.776;2023-07-02T08:29:53;28.70;99.90
38428;DHT22;24211;49.980;19.776;2023-07-02T08:32:20;28.80;99.90
38428;DHT22;24211;49.980;19.776;2023-07-02T08:34:48;28.90;99.90
38428;DHT22;24211;49.980;19.776;2023-07-02T08:37:18;29.00;99.90
38428;DHT22;24211;49.980;19.776;2023-07-02T08:39:49;29.00;99.90
38428;DHT22;24211;49.980;19.776;2023-07-02T08:42:16;29.10;99.90
38428;DHT22;24211;49.980;19.776;2023-07-02T08:44:47;28.90;99.90
38428;DHT22;24211;49.980;19.776;2023-07-02T08:47:20;29.10;99.90
38428;DHT22;24211;49.980;19.776;2023-07-02T08:49:49;28.90;99.90
38428;DHT22;24211;49.980;19.776;2023-07-02T08:52:16;28.70;99.90
38428;DHT22;24211;49.980;19.776;2023-07-02T08:54:44;28.80;99.90
38428;DHT22;24211;49.980;19.776;2023-07-02T08:57:11;28.70;99.90
38428;DHT22;24211;49.980;19.776;2023-07-02T08:59:38;29.00;99.90
38428;DHT22;24211;49.980;19.776;2023-07-02T09:02:06;29.00;99.90
38428;DHT22;24211;49.980;19.776;2023-07-02T09:04:33;28.90;99.90
38428;DHT22;24211;49.980;19.776;2023-07-02T09:07:07;29.20;99.90
38428;DHT22;24211;49.980;19.776;2023-07-02T09:09:48;29.30;99.80
38428;DHT22;24211;49.980;19.776;2023-07-02T09:12:27;29.10;99.70
38428;DHT22;24211;49.980;19.776;2023-07-02T09:15:07;29.20;99.90
38428;DHT22;24211;49.980;19.776;2023-07-02T09:17:36;29.50;99.60
38428;DHT22;24211;49.980;19.776;2023-07-02T09:20:05;29.60;99.30
38428;DHT22;24211;49.980;19.776;2023-07-02T09:22:36;29.50;99.40
38428;DHT22;24211;49.980;19.776;2023-07-02T09:25:04;29.50;99.50
38428;DHT22;24211;49.980;19.776;2023-07-02T09:27:39;29.30;99.40
38428;DHT22;24211;49.980;19.776;2023-07-02T09:30:13;28.90;99.50
38428;DHT22;24211;49.980;19.776;2023-07-02T09:32:44;28.80;99.80
38428;DHT22;24211;49.980;19.776;2023-07-02T09:35:12;28.90;99.90
38428;DHT22;24211;49.980;19.776;2023-07-02T09:37:42;28.80;99.80
38428;DHT22;24211;49.980;19.776;2023-07-02T09:40:11;28.60;99.90
38428;DHT22;24211;49.980;19.776;2023-07-02T09:42:39;28.50;99.90
38428;DHT22;24211;49.980;19.776;2023-07-02T09:45:08;28.50;99.90
38428;DHT22;24211;49.980;19.776;2023-07-02T09:47:43;28.80;99.90
38428;DHT22;24211;49.980;19.776;2023-07-02T09:50:17;28.50;99.90
38428;DHT22;24211;49.980;19.776;2023-07-02T09:52:46;28.30;99.90
38428;DHT22;24211;49.980;19.776;2023-07-02T09:55:15;28.40;99.90
38428;DHT22;24211;49.980;19.776;2023-07-02T09:57:45;28.20;99.90
38428;DHT22;24211;49.980;19.776;2023-07-02T10:00:14;27.90;99.90
38428;DHT22;24211;49.980;19.776;2023-07-02T10:02:47;27.60;99.90
38428;DHT22;24211;49.980;19.776;2023-07-02T10:05:32;27.70;99.90
38428;DHT22;24211;49.980;19.776;2023-07-02T10:08:16;28.10;99.90
38428;DHT22;24211;49.980;19.776;2023-07-02T10:10:45;28.10;99.90
38428;DHT22;24211;49.980;19.776;2023-07-02T10:13:12;27.80;99.90
38428;DHT22;24211;49.980;19.776;2023-07-02T10:15:40;27.80;99.90
38428;DHT22;24211;49.980;19.776;2023-07-02T10:18:08;27.60;99.90
38428;DHT22;24211;49.980;19.776;2023-07-02T10:20:38;27.70;99.90
38428;DHT22;24211;49.980;19.776;2023-07-02T10:23:08;27.70;99.90
38428;DHT22;24211;49.980;19.776;2023-07-02T10:25:37;27.50;99.90
38428;DHT22;24211;49.980;19.776;2023-07-02T10:30:47;27.80;99.90
38428;DHT22;24211;49.980;19.776;2023-07-02T10:33:16;27.70;99.90
38428;DHT22;24211;49.980;19.776;2023-07-02T10:35:47;27.50;99.90
38428;DHT22;24211;49.980;19.776;2023-07-02T10:38:21;27.50;99.90
38428;DHT22;24211;49.980;19.776;2023-07-02T10:40:58;27.30;99.90
38428;DHT22;24211;49.980;19.776;2023-07-02T10:43:26;27.40;99.90
38428;DHT22;24211;49.980;19.776;2023-07-02T10:45:58;27.60;99.90
38428;DHT22;24211;49.980;19.776;2023-07-02T10:48:28;27.70;99.90
38428;DHT22;24211;49.980;19.776;2023-07-02T10:50:56;27.90;99.90
38428;DHT22;24211;49.980;19.776;2023-07-02T10:53:23;28.20;99.90
38428;DHT22;24211;49.980;19.776;2023-07-02T10:55:57;28.30;99.90
38428;DHT22;24211;49.980;19.776;2023-07-02T10:58:25;28.40;99.90
38428;DHT22;24211;49.980;19.776;2023-07-02T11:00:53;28.60;99.90
38428;DHT22;24211;49.980;19.776;2023-07-02T11:03:22;28.80;99.90
38428;DHT22;24211;49.980;19.776;2023-07-02T11:05:52;29.20;99.90
38428;DHT22;24211;49.980;19.776;2023-07-02T11:08:21;29.40;99.90
38428;DHT22;24211;49.980;19.776;2023-07-02T11:10:50;29.70;99.90
38428;DHT22;24211;49.980;19.776;2023-07-02T11:13:19;30.00;99.90
38428;DHT22;24211;49.980;19.776;2023-07-02T11:15:47;30.40;99.90
38428;DHT22;24211;49.980;19.776;2023-07-02T11:18:17;30.80;99.90
38428;DHT22;24211;49.980;19.776;2023-07-02T11:20:47;31.00;99.80
38428;DHT22;24211;49.980;19.776;2023-07-02T11:23:25;31.20;99.60
38428;DHT22;24211;49.980;19.776;2023-07-02T11:28:24;31.30;99.30
38428;DHT22;24211;49.980;19.776;2023-07-02T11:30:52;31.40;99.10
38428;DHT22;24211;49.980;19.776;2023-07-02T11:33:52;31.40;99.00
38428;DHT22;24211;49.980;19.776;2023-07-02T11:36:22;31.70;98.80
38428;DHT22;24211;49.980;19.776;2023-07-02T11:38:51;31.90;98.60
38428;DHT22;24211;49.980;19.776;2023-07-02T11:41:19;32.20;98.50
38428;DHT22;24211;49.980;19.776;2023-07-02T11:43:48;32.30;98.50
38428;DHT22;24211;49.980;19.776;2023-07-02T11:46:15;32.50;98.30
38428;DHT22;24211;49.980;19.776;2023-07-02T11:48:42;32.70;97.90
38428;DHT22;24211;49.980;19.776;2023-07-02T11:51:10;32.80;97.60
38428;DHT22;24211;49.980;19.776;2023-07-02T11:53:37;32.80;97.50
38428;DHT22;24211;49.980;19.776;2023-07-02T11:56:04;32.80;97.40
38428;DHT22;24211;49.980;19.776;2023-07-02T11:58:31;32.80;97.20
38428;DHT22;24211;49.980;19.776;2023-07-02T12:00:59;32.80;97.20
38428;DHT22;24211;49.980;19.776;2023-07-02T12:03:26;32.70;97.20
38428;DHT22;24211;49.980;19.776;2023-07-02T12:05:54;32.80;97.40
38428;DHT22;24211;49.980;19.776;2023-07-02T12:08:21;33.00;97.50
38428;DHT22;24211;49.980;19.776;2023-07-02T12:10:48;33.30;96.90
38428;DHT22;24211;49.980;19.776;2023-07-02T12:13:16;33.50;96.70
38428;DHT22;24211;49.980;19.776;2023-07-02T12:15:43;33.70;96.90
38428;DHT22;24211;49.980;19.776;2023-07-02T12:18:10;34.30;96.00
38428;DHT22;24211;49.980;19.776;2023-07-02T12:20:42;34.60;95.30
38428;DHT22;24211;49.980;19.776;2023-07-02T12:23:09;34.70;95.10
38428;DHT22;24211;49.980;19.776;2023-07-02T12:25:39;34.70;95.00
38428;DHT22;24211;49.980;19.776;2023-07-02T12:28:06;35.00;94.60
38428;DHT22;24211;49.980;19.776;2023-07-02T12:30:34;35.20;94.20
38428;DHT22;24211;49.980;19.776;2023-07-02T12:33:02;35.20;94.20
38428;DHT22;24211;49.980;19.776;2023-07-02T12:35:29;35.30;94.60
38428;DHT22;24211;49.980;19.776;2023-07-02T12:37:57;35.40;94.80
38428;DHT22;24211;49.980;19.776;2023-07-02T12:40:24;35.60;94.70
38428;DHT22;24211;49.980;19.776;2023-07-02T12:42:51;35.70;94.70
38428;DHT22;24211;49.980;19.776;2023-07-02T12:45:18;36.20;94.00
38428;DHT22;24211;49.980;19.776;2023-07-02T12:47:48;36.50;93.70
38428;DHT22;24211;49.980;19.776;2023-07-02T12:50:15;36.80;93.00
38428;DHT22;24211;49.980;19.776;2023-07-02T12:52:43;36.80;92.80
38428;DHT22;24211;49.980;19.776;2023-07-02T12:55:10;36.80;92.70
38428;DHT22;24211;49.980;19.776;2023-07-02T12:57:37;36.80;92.70
38428;DHT22;24211;49.980;19.776;2023-07-02T13:00:06;37.20;91.70
38428;DHT22;24211;49.980;19.776;2023-07-02T13:02:37;37.30;91.20
38428;DHT22;24211;49.980;19.776;2023-07-02T13:05:20;37.20;91.00
38428;DHT22;24211;49.980;19.776;2023-07-02T13:07:47;36.80;91.30
38428;DHT22;24211;49.980;19.776;2023-07-02T13:10:14;36.60;91.70
38428;DHT22;24211;49.980;19.776;2023-07-02T13:12:41;36.70;91.50
38428;DHT22;24211;49.980;19.776;2023-07-02T13:15:09;36.90;90.70
38428;DHT22;24211;49.980;19.776;2023-07-02T13:17:38;36.80;90.40
38428;DHT22;24211;49.980;19.776;2023-07-02T13:20:06;36.50;90.40
38428;DHT22;24211;49.980;19.776;2023-07-02T13:22:34;36.20;90.80
38428;DHT22;24211;49.980;19.776;2023-07-02T13:25:01;36.30;91.20
38428;DHT22;24211;49.980;19.776;2023-07-02T13:27:28;36.30;91.20
38428;DHT22;24211;49.980;19.776;2023-07-02T13:29:55;36.40;91.20
38428;DHT22;24211;49.980;19.776;2023-07-02T13:32:23;36.40;90.70
38428;DHT22;24211;49.980;19.776;2023-07-02T13:34:50;36.40;90.10
38428;DHT22;24211;49.980;19.776;2023-07-02T13:37:18;36.20;90.30
38428;DHT22;24211;49.980;19.776;2023-07-02T13:39:46;36.20;90.10
38428;DHT22;24211;49.980;19.776;2023-07-02T13:42:15;36.20;89.30
38428;DHT22;24211;49.980;19.776;2023-07-02T13:44:43;36.00;88.30
38428;DHT22;24211;49.980;19.776;2023-07-02T13:47:10;35.70;88.60
38428;DHT22;24211;49.980;19.776;2023-07-02T13:49:38;35.50;88.60
38428;DHT22;24211;49.980;19.776;2023-07-02T13:52:06;34.50;90.00
38428;DHT22;24211;49.980;19.776;2023-07-02T13:54:33;32.60;91.20
38428;DHT22;24211;49.980;19.776;2023-07-02T13:57:03;31.50;91.70
38428;DHT22;24211;49.980;19.776;2023-07-02T13:59:31;31.20;92.20
38428;DHT22;24211;49.980;19.776;2023-07-02T14:01:58;31.20;92.30
38428;DHT22;24211;49.980;19.776;2023-07-02T14:04:25;30.30;92.70
38428;DHT22;24211;49.980;19.776;2023-07-02T14:06:52;29.70;93.00
38428;DHT22;24211;49.980;19.776;2023-07-02T14:09:20;29.20;93.20
38428;DHT22;24211;49.980;19.776;2023-07-02T14:11:48;28.70;93.60
38428;DHT22;24211;49.980;19.776;2023-07-02T14:14:15;28.50;93.70
38428;DHT22;24211;49.980;19.776;2023-07-02T14:16:42;28.20;93.90
38428;DHT22;24211;49.980;19.776;2023-07-02T14:19:09;28.40;93.80
38428;DHT22;24211;49.980;19.776;2023-07-02T14:21:37;28.30;93.70
38428;DHT22;24211;49.980;19.776;2023-07-02T14:24:05;28.30;93.90
38428;DHT22;24211;49.980;19.776;2023-07-02T14:26:32;28.10;93.90
38428;DHT22;24211;49.980;19.776;2023-07-02T14:28:59;27.80;95.20
38428;DHT22;24211;49.980;19.776;2023-07-02T14:31:27;27.70;96.00
38428;DHT22;24211;49.980;19.776;2023-07-02T14:33:54;27.80;96.50
38428;DHT22;24211;49.980;19.776;2023-07-02T14:36:21;27.70;96.60
38428;DHT22;24211;49.980;19.776;2023-07-02T14:38:48;27.90;96.50
38428;DHT22;24211;49.980;19.776;2023-07-02T14:41:15;27.90;96.40
38428;DHT22;24211;49.980;19.776;2023-07-02T14:43:42;27.90;96.40
38428;DHT22;24211;49.980;19.776;2023-07-02T14:46:10;28.00;96.40
38428;DHT22;24211;49.980;19.776;2023-07-02T14:48:38;28.00;96.40
38428;DHT22;24211;49.980;19.776;2023-07-02T14:51:05;28.00;96.60
38428;DHT22;24211;49.980;19.776;2023-07-02T14:53:33;27.90;96.60
38428;DHT22;24211;49.980;19.776;2023-07-02T14:56:02;27.90;96.70
38428;DHT22;24211;49.980;19.776;2023-07-02T14:58:30;27.80;96.80
38428;DHT22;24211;49.980;19.776;2023-07-02T15:00:58;27.80;96.80
38428;DHT22;24211;49.980;19.776;2023-07-02T15:03:27;27.80;96.90
38428;DHT22;24211;49.980;19.776;2023-07-02T15:06:07;27.70;96.90
38428;DHT22;24211;49.980;19.776;2023-07-02T15:08:40;27.70;96.90
38428;DHT22;24211;49.980;19.776;2023-07-02T15:11:09;27.70;97.00
38428;DHT22;24211;49.980;19.776;2023-07-02T15:13:38;27.60;97.00
38428;DHT22;24211;49.980;19.776;2023-07-02T15:16:05;27.60;97.00
38428;DHT22;24211;49.980;19.776;2023-07-02T15:18:33;27.60;97.10
38428;DHT22;24211;49.980;19.776;2023-07-02T15:21:01;27.50;97.10
38428;DHT22;24211;49.980;19.776;2023-07-02T15:23:28;27.60;97.10
38428;DHT22;24211;49.980;19.776;2023-07-02T15:25:59;27.60;97.10
38428;DHT22;24211;49.980;19.776;2023-07-02T15:28:28;27.70;97.10